createdAt,value
2023-03-20T00:00:35.829Z,0
2023-03-20T00:01:35.828Z,0
2023-03-20T00:02:35.825Z,0
2023-03-20T00:03:35.854Z,0
2023-03-20T00:04:35.938Z,0
2023-03-20T00:05:36.034Z,0
2023-03-20T00:06:35.833Z,0
2023-03-20T00:07:35.822Z,7.9
2023-03-20T00:08:35.830Z,3.2
2023-03-20T00:09:35.826Z,3.8000000000000003
2023-03-20T00:10:35.816Z,1.2000000000000002
2023-03-20T00:11:35.835Z,0
2023-03-20T00:12:35.841Z,0
2023-03-20T00:13:35.829Z,0
2023-03-20T00:14:35.833Z,0
2023-03-20T00:15:36.073Z,0
2023-03-20T00:16:35.818Z,0
2023-03-20T00:17:35.822Z,0
2023-03-20T00:18:35.835Z,0
2023-03-20T00:19:35.826Z,4.800000000000001
2023-03-20T00:20:36.145Z,5.800000000000001
2023-03-20T00:21:35.837Z,3.9000000000000004
2023-03-20T00:22:35.830Z,4.5
2023-03-20T00:23:35.844Z,5
2023-03-20T00:24:35.834Z,1.9000000000000001
2023-03-20T00:25:36.094Z,0
2023-03-20T00:26:35.841Z,0
2023-03-20T00:27:35.838Z,0
2023-03-20T00:28:35.853Z,0
2023-03-20T00:29:35.840Z,0
2023-03-20T00:30:35.829Z,0
2023-03-20T00:31:35.886Z,0
2023-03-20T00:32:35.866Z,0
2023-03-20T00:33:35.829Z,0
2023-03-20T00:34:35.846Z,0
2023-03-20T00:35:36.161Z,0
2023-03-20T00:36:35.851Z,0
2023-03-20T00:37:35.827Z,0
2023-03-20T00:38:35.862Z,0
2023-03-20T00:39:35.837Z,0
2023-03-20T00:40:35.842Z,0
2023-03-20T00:41:35.835Z,0
2023-03-20T00:42:35.841Z,0
2023-03-20T00:43:35.831Z,0
2023-03-20T00:44:35.854Z,0
2023-03-20T00:45:36.277Z,0
2023-03-20T00:46:35.849Z,0
2023-03-20T00:47:35.835Z,0
2023-03-20T00:48:35.836Z,0
2023-03-20T00:49:35.840Z,0
2023-03-20T00:50:35.842Z,0
2023-03-20T00:51:35.837Z,0
2023-03-20T00:52:35.836Z,0
2023-03-20T00:53:35.843Z,0
2023-03-20T00:54:35.847Z,0
2023-03-20T00:55:36.059Z,0
2023-03-20T00:56:35.847Z,0
2023-03-20T00:57:35.843Z,0
2023-03-20T00:58:35.847Z,0
2023-03-20T00:59:35.866Z,0
2023-03-20T01:00:35.968Z,0
2023-03-20T01:01:35.858Z,0
2023-03-20T01:02:35.868Z,0
2023-03-20T01:03:35.852Z,0
2023-03-20T01:04:35.876Z,0
2023-03-20T01:05:36.101Z,0
2023-03-20T01:06:35.855Z,0
2023-03-20T01:07:35.856Z,0
2023-03-20T01:08:35.850Z,0
2023-03-20T01:09:35.855Z,0
2023-03-20T01:10:35.863Z,0
2023-03-20T01:11:35.864Z,0
2023-03-20T01:12:35.855Z,0
2023-03-20T01:13:35.851Z,3.8000000000000003
2023-03-20T01:14:35.849Z,4.800000000000001
2023-03-20T01:15:36.119Z,6.4
2023-03-20T01:16:36.057Z,7.9
2023-03-20T01:17:35.862Z,3.6
2023-03-20T01:18:35.847Z,6.300000000000001
2023-03-20T01:19:35.849Z,5.4
2023-03-20T01:20:35.852Z,6.9
2023-03-20T01:21:35.860Z,8.8
2023-03-20T01:22:35.861Z,7.2
2023-03-20T01:23:35.864Z,5.6000000000000005
2023-03-20T01:24:35.849Z,9.600000000000001
2023-03-20T01:25:36.126Z,2.7
2023-03-20T01:26:35.873Z,9.8
2023-03-20T01:27:35.856Z,7.300000000000001
2023-03-20T01:28:35.854Z,9.1
2023-03-20T01:29:35.853Z,11.4
2023-03-20T01:30:35.854Z,10.700000000000001
2023-03-20T01:31:35.865Z,8.6
2023-03-20T01:32:35.964Z,12.100000000000001
2023-03-20T01:33:35.858Z,15.4
2023-03-20T01:34:35.861Z,16.5
2023-03-20T01:35:36.181Z,12.4
2023-03-20T01:36:35.852Z,12.600000000000001
2023-03-20T01:37:35.863Z,10.3
2023-03-20T01:38:35.856Z,14.100000000000001
2023-03-20T01:39:35.881Z,14
2023-03-20T01:40:35.858Z,17.3
2023-03-20T01:41:35.850Z,6.1000000000000005
2023-03-20T01:42:35.848Z,11.4
2023-03-20T01:43:35.880Z,12.600000000000001
2023-03-20T01:44:35.870Z,10.8
2023-03-20T01:45:36.277Z,17.900000000000002
2023-03-20T01:46:35.863Z,10.700000000000001
2023-03-20T01:47:35.873Z,9.600000000000001
2023-03-20T01:48:35.879Z,8.1
2023-03-20T01:49:35.852Z,7.9
2023-03-20T01:50:35.870Z,7.1000000000000005
2023-03-20T01:51:35.882Z,7.1000000000000005
2023-03-20T01:52:35.869Z,9.1
2023-03-20T01:53:35.857Z,7.1000000000000005
2023-03-20T01:54:35.848Z,11
2023-03-20T01:55:36.163Z,5.7
2023-03-20T01:56:35.860Z,10.5
2023-03-20T01:57:35.870Z,5
2023-03-20T01:58:35.868Z,10.3
2023-03-20T01:59:35.861Z,9.700000000000001
2023-03-20T02:00:35.864Z,7.9
2023-03-20T02:01:35.942Z,4.4
2023-03-20T02:02:35.854Z,5
2023-03-20T02:03:35.864Z,7.6000000000000005
2023-03-20T02:04:35.984Z,5.300000000000001
2023-03-20T02:05:36.110Z,7.300000000000001
2023-03-20T02:06:35.859Z,6.9
2023-03-20T02:07:35.864Z,5.1000000000000005
2023-03-20T02:08:35.869Z,9.9
2023-03-20T02:09:35.865Z,6.5
2023-03-20T02:10:35.876Z,7.2
2023-03-20T02:11:35.868Z,7.9
2023-03-20T02:12:35.894Z,3.9000000000000004
2023-03-20T02:13:35.863Z,5.7
2023-03-20T02:14:35.878Z,3.1
2023-03-20T02:15:36.134Z,9.600000000000001
2023-03-20T02:16:35.964Z,4.3
2023-03-20T02:17:35.854Z,10.100000000000001
2023-03-20T02:18:35.881Z,5.800000000000001
2023-03-20T02:19:35.863Z,3.9000000000000004
2023-03-20T02:20:35.885Z,4.9
2023-03-20T02:21:35.870Z,5.5
2023-03-20T02:22:35.868Z,8
2023-03-20T02:23:35.875Z,9.5
2023-03-20T02:24:35.868Z,9.8
2023-03-20T02:25:36.084Z,10
2023-03-20T02:26:35.868Z,10.100000000000001
2023-03-20T02:27:35.886Z,12.5
2023-03-20T02:28:35.870Z,10.200000000000001
2023-03-20T02:29:35.865Z,9.1
2023-03-20T02:30:35.926Z,6.4
2023-03-20T02:31:35.874Z,10
2023-03-20T02:32:35.926Z,8.8
2023-03-20T02:33:35.867Z,7.9
2023-03-20T02:34:35.885Z,8.200000000000001
2023-03-20T02:35:36.106Z,8.6
2023-03-20T02:36:35.892Z,6.1000000000000005
2023-03-20T02:37:35.880Z,7.5
2023-03-20T02:38:35.876Z,3.3000000000000003
2023-03-20T02:39:35.895Z,9.1
2023-03-20T02:40:35.894Z,5.6000000000000005
2023-03-20T02:41:35.926Z,8
2023-03-20T02:42:35.880Z,11.200000000000001
2023-03-20T02:43:35.876Z,8.5
2023-03-20T02:44:35.904Z,8.700000000000001
2023-03-20T02:45:36.106Z,11.100000000000001
2023-03-20T02:46:35.979Z,10.3
2023-03-20T02:47:35.870Z,9.1
2023-03-20T02:48:35.879Z,10.200000000000001
2023-03-20T02:49:35.873Z,9.5
2023-03-20T02:50:35.881Z,9.8
2023-03-20T02:51:35.883Z,7.800000000000001
2023-03-20T02:52:35.900Z,4.7
2023-03-20T02:53:35.878Z,3.9000000000000004
2023-03-20T02:54:35.882Z,3.9000000000000004
2023-03-20T02:55:36.138Z,2.4000000000000004
2023-03-20T02:56:35.885Z,3.4000000000000004
2023-03-20T02:57:35.883Z,4.5
2023-03-20T02:58:35.870Z,3.1
2023-03-20T02:59:35.891Z,4.6000000000000005
2023-03-20T03:00:35.882Z,3.7
2023-03-20T03:01:35.971Z,3.2
2023-03-20T03:02:35.910Z,1.9000000000000001
2023-03-20T03:03:35.891Z,0
2023-03-20T03:04:35.875Z,0
2023-03-20T03:05:36.192Z,0
2023-03-20T03:06:35.886Z,0.7000000000000001
2023-03-20T03:07:35.881Z,3.1
2023-03-20T03:08:35.909Z,0.6000000000000001
2023-03-20T03:09:35.903Z,0
2023-03-20T03:10:35.887Z,0
2023-03-20T03:11:35.906Z,0
2023-03-20T03:12:35.892Z,0
2023-03-20T03:13:35.895Z,0
2023-03-20T03:14:35.894Z,0
2023-03-20T03:15:36.115Z,0
2023-03-20T03:16:35.903Z,0
2023-03-20T03:17:35.893Z,0
2023-03-20T03:18:35.917Z,0
2023-03-20T03:19:35.890Z,0
2023-03-20T03:20:35.890Z,0
2023-03-20T03:21:35.886Z,0
2023-03-20T03:22:35.893Z,0
2023-03-20T03:23:35.887Z,0
2023-03-20T03:24:42.148Z,0
2023-03-20T03:25:36.180Z,0
2023-03-20T03:26:35.889Z,0
2023-03-20T03:27:35.892Z,0
2023-03-20T03:28:35.890Z,0
2023-03-20T03:29:35.919Z,0
2023-03-20T03:30:35.890Z,0
2023-03-20T03:31:35.941Z,0
2023-03-20T03:32:35.973Z,0
2023-03-20T03:33:35.892Z,0
2023-03-20T03:34:35.891Z,0
2023-03-20T03:35:36.170Z,0
2023-03-20T03:36:35.880Z,0
2023-03-20T03:37:35.886Z,0
2023-03-20T03:38:35.882Z,0
2023-03-20T03:39:35.898Z,0
2023-03-20T03:40:35.922Z,0
2023-03-20T03:41:35.897Z,0
2023-03-20T03:42:35.901Z,0
2023-03-20T03:43:35.887Z,0
2023-03-20T03:44:35.900Z,0
2023-03-20T03:45:36.100Z,0
2023-03-20T03:46:35.979Z,0
2023-03-20T03:47:35.891Z,0
2023-03-20T03:48:35.893Z,0
2023-03-20T03:49:35.891Z,0
2023-03-20T03:50:35.894Z,0
2023-03-20T03:51:35.887Z,0
2023-03-20T03:52:35.914Z,0
2023-03-20T03:53:35.896Z,0
2023-03-20T03:54:35.924Z,0
2023-03-20T03:55:36.171Z,0
2023-03-20T03:56:35.957Z,0
2023-03-20T03:57:35.921Z,0
2023-03-20T03:58:35.902Z,0
2023-03-20T03:59:35.901Z,0
2023-03-20T04:00:35.897Z,0
2023-03-20T04:01:35.973Z,0
2023-03-20T04:02:35.890Z,0
2023-03-20T04:03:35.899Z,0
2023-03-20T04:04:35.972Z,0
2023-03-20T04:05:36.116Z,0
2023-03-20T04:06:35.894Z,0
2023-03-20T04:07:35.899Z,0
2023-03-20T04:08:35.892Z,0
2023-03-20T04:09:35.891Z,0
2023-03-20T04:10:35.902Z,0
2023-03-20T04:11:35.892Z,0
2023-03-20T04:12:35.947Z,0
2023-03-20T04:13:35.911Z,0
2023-03-20T04:14:35.897Z,0
2023-03-20T04:15:36.174Z,0
2023-03-20T04:16:35.949Z,0
2023-03-20T04:17:35.908Z,0
2023-03-20T04:18:35.897Z,0
2023-03-20T04:19:35.913Z,0
2023-03-20T04:20:35.910Z,0
2023-03-20T04:21:35.910Z,0
2023-03-20T04:22:35.899Z,0
2023-03-20T04:23:35.914Z,0
2023-03-20T04:24:35.899Z,0
2023-03-20T04:25:36.162Z,0
2023-03-20T04:26:35.904Z,0
2023-03-20T04:27:35.903Z,0
2023-03-20T04:28:35.937Z,0
2023-03-20T04:29:38.150Z,0
2023-03-20T04:30:35.916Z,0
2023-03-20T04:31:36.012Z,0
2023-03-20T04:32:35.952Z,0
2023-03-20T04:33:35.912Z,0
2023-03-20T04:34:35.908Z,0
2023-03-20T04:35:36.319Z,0
2023-03-20T04:36:35.921Z,0
2023-03-20T04:37:35.903Z,0
2023-03-20T04:38:35.906Z,0
2023-03-20T04:39:35.927Z,0
2023-03-20T04:40:35.908Z,0
2023-03-20T04:41:35.913Z,0
2023-03-20T04:42:35.920Z,0
2023-03-20T04:43:35.926Z,0
2023-03-20T04:44:35.936Z,0
2023-03-20T04:45:36.165Z,0
2023-03-20T04:46:35.925Z,0
2023-03-20T04:47:35.923Z,0
2023-03-20T04:48:35.918Z,0
2023-03-20T04:49:35.904Z,0
2023-03-20T04:50:35.913Z,0
2023-03-20T04:51:35.910Z,0
2023-03-20T04:52:35.915Z,0
2023-03-20T04:53:35.903Z,0
2023-03-20T04:54:35.911Z,0
2023-03-20T04:55:36.167Z,0
2023-03-20T04:56:35.909Z,0
2023-03-20T04:57:35.923Z,0
2023-03-20T04:58:35.927Z,0
2023-03-20T04:59:35.919Z,0
2023-03-20T05:00:35.952Z,0
2023-03-20T05:01:35.915Z,0
2023-03-20T05:02:35.917Z,0
2023-03-20T05:03:35.927Z,0
2023-03-20T05:04:35.910Z,0
2023-03-20T05:05:36.141Z,0
2023-03-20T05:06:35.941Z,0
2023-03-20T05:07:35.918Z,0
2023-03-20T05:08:35.927Z,0
2023-03-20T05:09:35.915Z,0
2023-03-20T05:10:35.920Z,0
2023-03-20T05:11:35.926Z,0
2023-03-20T05:12:35.920Z,0
2023-03-20T05:13:35.921Z,0
2023-03-20T05:14:35.914Z,0
2023-03-20T05:15:36.115Z,0
2023-03-20T05:16:36.067Z,0
2023-03-20T05:17:35.926Z,0
2023-03-20T05:18:35.924Z,0
2023-03-20T05:19:35.918Z,0
2023-03-20T05:20:35.919Z,0
2023-03-20T05:21:35.919Z,0
2023-03-20T05:22:35.915Z,0
2023-03-20T05:23:35.918Z,0
2023-03-20T05:24:35.943Z,0
2023-03-20T05:25:36.282Z,0
2023-03-20T05:26:35.920Z,0
2023-03-20T05:27:35.926Z,0
2023-03-20T05:28:35.920Z,0
2023-03-20T05:29:35.916Z,0
2023-03-20T05:30:35.989Z,0
2023-03-20T05:31:35.917Z,0
2023-03-20T05:32:36.031Z,0
2023-03-20T05:33:38.032Z,0
2023-03-20T05:34:35.922Z,0
2023-03-20T05:35:36.213Z,0
2023-03-20T05:36:35.923Z,0
2023-03-20T05:37:35.924Z,0
2023-03-20T05:38:35.920Z,0
2023-03-20T05:39:35.925Z,0
2023-03-20T05:40:35.936Z,0
2023-03-20T05:41:35.944Z,0
2023-03-20T05:42:35.938Z,0
2023-03-20T05:43:35.933Z,0
2023-03-20T05:44:35.931Z,0
2023-03-20T05:45:36.197Z,0
2023-03-20T05:46:35.968Z,0
2023-03-20T05:47:35.938Z,0
2023-03-20T05:48:35.948Z,0
2023-03-20T05:49:35.933Z,0
2023-03-20T05:50:35.925Z,0
2023-03-20T05:51:35.944Z,0
2023-03-20T05:52:35.947Z,0
2023-03-20T05:53:35.930Z,0
2023-03-20T05:54:35.931Z,0
2023-03-20T05:55:36.234Z,0
2023-03-20T05:56:35.957Z,0
2023-03-20T05:57:35.937Z,0
2023-03-20T05:58:35.950Z,0
2023-03-20T05:59:35.956Z,0
2023-03-20T06:00:35.938Z,0
2023-03-20T06:01:35.931Z,0
2023-03-20T06:02:35.934Z,0
2023-03-20T06:03:35.982Z,0
2023-03-20T06:04:35.957Z,0
2023-03-20T06:05:36.203Z,0
2023-03-20T06:06:35.932Z,0
2023-03-20T06:07:35.955Z,0
2023-03-20T06:08:35.946Z,0
2023-03-20T06:09:35.957Z,0
2023-03-20T06:10:35.942Z,0
2023-03-20T06:11:37.548Z,0
2023-03-20T06:12:35.947Z,0
2023-03-20T06:13:35.963Z,0
2023-03-20T06:14:35.945Z,0
2023-03-20T06:15:36.260Z,0
2023-03-20T06:16:35.937Z,0
2023-03-20T06:17:35.948Z,0
2023-03-20T06:18:35.948Z,0
2023-03-20T06:19:35.949Z,0
2023-03-20T06:20:35.980Z,0
2023-03-20T06:21:35.954Z,0
2023-03-20T06:22:35.953Z,0
2023-03-20T06:23:35.953Z,0
2023-03-20T06:24:35.950Z,0
2023-03-20T06:25:36.230Z,0
2023-03-20T06:26:35.949Z,0
2023-03-20T06:27:35.948Z,0
2023-03-20T06:28:35.954Z,0
2023-03-20T06:29:35.949Z,0
2023-03-20T06:30:35.950Z,0
2023-03-20T06:31:36.016Z,0
2023-03-20T06:32:36.047Z,0
2023-03-20T06:33:35.948Z,0
2023-03-20T06:34:35.970Z,0
2023-03-20T06:35:36.237Z,0
2023-03-20T06:36:35.986Z,0
2023-03-20T06:37:35.961Z,0
2023-03-20T06:38:35.953Z,0
2023-03-20T06:39:35.954Z,0
2023-03-20T06:40:35.960Z,0
2023-03-20T06:41:35.964Z,0
2023-03-20T06:42:35.951Z,0
2023-03-20T06:43:35.979Z,0
2023-03-20T06:44:35.979Z,0
2023-03-20T06:45:36.201Z,0
2023-03-20T06:46:36.087Z,0
2023-03-20T06:47:35.945Z,0
2023-03-20T06:48:35.963Z,0
2023-03-20T06:49:35.957Z,0
2023-03-20T06:50:35.953Z,0
2023-03-20T06:51:35.958Z,0
2023-03-20T06:52:35.982Z,0
2023-03-20T06:53:35.960Z,0
2023-03-20T06:54:35.952Z,0
2023-03-20T06:55:36.232Z,0
2023-03-20T06:56:35.960Z,0
2023-03-20T06:57:35.984Z,0
2023-03-20T06:58:35.972Z,0
2023-03-20T06:59:35.958Z,0
2023-03-20T07:00:35.958Z,0
2023-03-20T07:01:36.059Z,0
2023-03-20T07:02:35.959Z,0
2023-03-20T07:03:35.972Z,0
2023-03-20T07:04:36.015Z,0
2023-03-20T07:05:36.273Z,0
2023-03-20T07:06:35.958Z,0
2023-03-20T07:07:35.958Z,0
2023-03-20T07:08:35.996Z,0
2023-03-20T07:09:35.971Z,0
2023-03-20T07:10:35.976Z,0
2023-03-20T07:11:35.972Z,0
2023-03-20T07:12:35.972Z,0
2023-03-20T07:13:35.974Z,0
2023-03-20T07:14:35.969Z,0
2023-03-20T07:15:36.213Z,0
2023-03-20T07:16:36.058Z,0
2023-03-20T07:17:35.977Z,0
2023-03-20T07:18:35.991Z,0
2023-03-20T07:19:38.002Z,0
2023-03-20T07:20:35.993Z,0
2023-03-20T07:21:35.973Z,0
2023-03-20T07:22:35.968Z,0
2023-03-20T07:23:35.997Z,0
2023-03-20T07:24:36.006Z,0
2023-03-20T07:25:42.723Z,0
2023-03-20T07:26:35.985Z,0
2023-03-20T07:27:35.992Z,0
2023-03-20T07:28:35.975Z,0
2023-03-20T07:29:35.978Z,0
2023-03-20T07:30:35.993Z,0
2023-03-20T07:31:36.085Z,0
2023-03-20T07:32:37.690Z,0
2023-03-20T07:33:35.979Z,0
2023-03-20T07:34:36.007Z,0
2023-03-20T07:35:36.359Z,0
2023-03-20T07:36:35.973Z,0
2023-03-20T07:37:35.980Z,0
2023-03-20T07:38:35.977Z,0
2023-03-20T07:39:35.976Z,0
2023-03-20T07:40:36.006Z,0
2023-03-20T07:41:35.963Z,0
2023-03-20T07:42:35.978Z,0
2023-03-20T07:43:35.972Z,0
2023-03-20T07:44:35.998Z,0
2023-03-20T07:45:36.239Z,0
2023-03-20T07:46:35.973Z,0
2023-03-20T07:47:36.010Z,0
2023-03-20T07:48:35.978Z,0
2023-03-20T07:49:36.018Z,0
2023-03-20T07:50:36.000Z,0
2023-03-20T07:51:35.966Z,0
2023-03-20T07:52:35.985Z,0
2023-03-20T07:53:35.981Z,0
2023-03-20T07:54:35.980Z,0
2023-03-20T07:55:36.204Z,0
2023-03-20T07:56:36.002Z,0
2023-03-20T07:57:35.976Z,0
2023-03-20T07:58:35.981Z,0
2023-03-20T07:59:35.976Z,0
2023-03-20T08:00:35.987Z,0
2023-03-20T08:01:35.983Z,0
2023-03-20T08:02:36.029Z,0
2023-03-20T08:03:36.133Z,0
2023-03-20T08:04:35.981Z,0
2023-03-20T08:05:36.265Z,0
2023-03-20T08:06:35.986Z,0
2023-03-20T08:07:35.992Z,0
2023-03-20T08:08:36.013Z,0
2023-03-20T08:09:35.974Z,0
2023-03-20T08:10:35.993Z,0
2023-03-20T08:11:35.989Z,0
2023-03-20T08:12:36.014Z,0
2023-03-20T08:13:35.996Z,0
2023-03-20T08:14:36.313Z,0
2023-03-20T08:15:36.223Z,0
2023-03-20T08:16:36.049Z,0
2023-03-20T08:17:36.041Z,0
2023-03-20T08:18:35.995Z,0
2023-03-20T08:19:35.999Z,0
2023-03-20T08:20:35.993Z,0
2023-03-20T08:21:36.011Z,0
2023-03-20T08:22:36.017Z,0
2023-03-20T08:23:35.992Z,0
2023-03-20T08:24:36.026Z,0
2023-03-20T08:25:36.262Z,0
2023-03-20T08:26:36.007Z,0
2023-03-20T08:27:36.060Z,0
2023-03-20T08:28:46.901Z,0
2023-03-20T08:29:36.030Z,0
2023-03-20T08:30:36.024Z,0
2023-03-20T08:31:36.000Z,0
2023-03-20T08:32:36.051Z,0
2023-03-20T08:33:36.003Z,0
2023-03-20T08:34:36.006Z,0
2023-03-20T08:35:36.063Z,0
2023-03-20T08:36:36.025Z,0
2023-03-20T08:37:36.005Z,0
2023-03-20T08:38:36.069Z,0
2023-03-20T08:39:36.023Z,0
2023-03-20T08:40:36.008Z,0
2023-03-20T08:41:36.012Z,0
2023-03-20T08:42:36.009Z,0
2023-03-20T08:43:36.020Z,0
2023-03-20T08:44:36.024Z,0
2023-03-20T08:45:36.281Z,0
2023-03-20T08:46:36.047Z,0
2023-03-20T08:47:36.022Z,0
2023-03-20T08:48:36.017Z,0
2023-03-20T08:49:36.024Z,0
2023-03-20T08:50:36.006Z,0
2023-03-20T08:51:36.020Z,0
2023-03-20T08:52:36.057Z,0
2023-03-20T08:53:36.026Z,0
2023-03-20T08:54:36.014Z,0
2023-03-20T08:55:36.290Z,0
2023-03-20T08:56:36.024Z,0
2023-03-20T08:57:36.015Z,0
2023-03-20T08:58:36.034Z,0
2023-03-20T08:59:36.024Z,0
2023-03-20T09:00:36.036Z,0
2023-03-20T09:01:48.592Z,0
2023-03-20T09:02:36.157Z,0
2023-03-20T09:03:36.019Z,0
2023-03-20T09:04:36.021Z,0
2023-03-20T09:05:36.267Z,0
2023-03-20T09:06:36.025Z,0
2023-03-20T09:07:36.018Z,0
2023-03-20T09:08:36.021Z,0
2023-03-20T09:09:36.022Z,0
2023-03-20T09:10:36.015Z,0
2023-03-20T09:11:36.017Z,0
2023-03-20T09:12:36.034Z,0
2023-03-20T09:13:36.038Z,0
2023-03-20T09:14:36.029Z,0
2023-03-20T09:15:36.384Z,0
2023-03-20T09:16:36.194Z,0
2023-03-20T09:17:36.017Z,0
2023-03-20T09:18:36.081Z,0
2023-03-20T09:19:36.030Z,0
2023-03-20T09:20:36.225Z,0
2023-03-20T09:21:36.041Z,0
2023-03-20T09:22:36.017Z,0
2023-03-20T09:23:36.032Z,0
2023-03-20T09:24:36.031Z,0
2023-03-20T09:25:36.351Z,0
2023-03-20T09:26:36.030Z,0
2023-03-20T09:27:36.037Z,0
2023-03-20T09:28:36.033Z,0
2023-03-20T09:29:36.029Z,0
2023-03-20T09:30:36.275Z,0
2023-03-20T09:31:36.103Z,0
2023-03-20T09:32:36.151Z,0
2023-03-20T09:33:36.040Z,0
2023-03-20T09:34:36.032Z,0
2023-03-20T09:35:36.052Z,0
2023-03-20T09:36:36.031Z,0
2023-03-20T09:37:36.038Z,0
2023-03-20T09:38:36.032Z,0
2023-03-20T09:39:36.033Z,0
2023-03-20T09:40:36.343Z,0
2023-03-20T09:41:45.752Z,0
2023-03-20T09:42:36.049Z,0
2023-03-20T09:43:36.039Z,0
2023-03-20T09:44:36.056Z,0
2023-03-20T09:45:36.030Z,0
2023-03-20T09:46:36.124Z,0
2023-03-20T09:47:36.065Z,0
2023-03-20T09:48:36.085Z,0
2023-03-20T09:49:36.037Z,0
2023-03-20T09:50:36.307Z,0
2023-03-20T09:51:36.052Z,0
2023-03-20T09:52:36.034Z,0
2023-03-20T09:53:36.045Z,0
2023-03-20T09:54:50.977Z,0
2023-03-20T09:55:36.486Z,0
2023-03-20T09:56:36.039Z,0
2023-03-20T09:57:36.059Z,0
2023-03-20T09:58:36.044Z,0
2023-03-20T09:59:36.041Z,0
2023-03-20T10:00:36.370Z,0
2023-03-20T10:01:38.366Z,0
2023-03-20T10:02:36.057Z,0
2023-03-20T10:03:36.045Z,0
2023-03-20T10:04:36.137Z,0
2023-03-20T10:05:36.216Z,0
2023-03-20T10:06:36.055Z,0
2023-03-20T10:07:36.042Z,0
2023-03-20T10:08:36.045Z,0
2023-03-20T10:09:36.053Z,0
2023-03-20T10:10:36.301Z,0
2023-03-20T10:11:36.052Z,0
2023-03-20T10:12:36.052Z,0
2023-03-20T10:13:36.048Z,0
2023-03-20T10:14:36.044Z,0
2023-03-20T10:15:36.057Z,0
2023-03-20T10:16:36.099Z,0
2023-03-20T10:17:36.041Z,0
2023-03-20T10:18:36.054Z,0
2023-03-20T10:19:36.063Z,0
2023-03-20T10:20:36.535Z,0
2023-03-20T10:21:36.069Z,0
2023-03-20T10:22:36.044Z,0
2023-03-20T10:23:36.078Z,0
2023-03-20T10:24:36.046Z,0
2023-03-20T10:25:36.044Z,0
2023-03-20T10:26:36.057Z,0
2023-03-20T10:27:36.071Z,3.8000000000000003
2023-03-20T10:28:36.056Z,1.3
2023-03-20T10:29:36.045Z,4
2023-03-20T10:30:36.282Z,0
2023-03-20T10:31:36.119Z,0
2023-03-20T10:32:36.161Z,0
2023-03-20T10:33:36.081Z,0
2023-03-20T10:34:36.057Z,0
2023-03-20T10:35:36.072Z,0
2023-03-20T10:36:36.127Z,0
2023-03-20T10:37:36.081Z,0
2023-03-20T10:38:36.056Z,0
2023-03-20T10:39:36.066Z,0
2023-03-20T10:40:36.316Z,0
2023-03-20T10:41:36.075Z,0
2023-03-20T10:42:36.050Z,1.2000000000000002
2023-03-20T10:43:38.904Z,0
2023-03-20T10:44:36.050Z,0
2023-03-20T10:45:36.076Z,0
2023-03-20T10:46:36.111Z,6.9
2023-03-20T10:47:36.069Z,2.7
2023-03-20T10:48:36.059Z,2.3000000000000003
2023-03-20T10:49:36.054Z,6.800000000000001
2023-03-20T10:50:36.348Z,2.4000000000000004
2023-03-20T10:51:36.064Z,0
2023-03-20T10:52:36.095Z,0
2023-03-20T10:53:36.070Z,0
2023-03-20T10:54:36.061Z,0
2023-03-20T10:55:36.064Z,0
2023-03-20T10:56:36.087Z,3.4000000000000004
2023-03-20T10:57:36.068Z,7.4
2023-03-20T10:58:36.060Z,5.1000000000000005
2023-03-20T10:59:36.062Z,7.2
2023-03-20T11:00:36.200Z,6.2
2023-03-20T11:01:36.146Z,1.5
2023-03-20T11:02:36.064Z,2.2
2023-03-20T11:03:36.062Z,0
2023-03-20T11:04:36.096Z,0
2023-03-20T11:05:36.071Z,4.3
2023-03-20T11:06:36.088Z,0
2023-03-20T11:07:36.088Z,0
2023-03-20T11:08:36.106Z,0
2023-03-20T11:09:36.070Z,0
2023-03-20T11:10:36.367Z,0
2023-03-20T11:11:36.082Z,0
2023-03-20T11:12:36.075Z,0
2023-03-20T11:13:36.084Z,0
2023-03-20T11:14:36.075Z,0
2023-03-20T11:15:36.073Z,0
2023-03-20T11:16:36.165Z,0
2023-03-20T11:17:36.075Z,0
2023-03-20T11:18:36.074Z,2.3000000000000003
2023-03-20T11:19:36.095Z,3.1
2023-03-20T11:20:36.336Z,3.8000000000000003
2023-03-20T11:21:36.077Z,0
2023-03-20T11:22:36.076Z,0
2023-03-20T11:23:36.089Z,0
2023-03-20T11:24:36.127Z,0
2023-03-20T11:25:36.089Z,0
2023-03-20T11:26:36.102Z,0
2023-03-20T11:27:36.086Z,0
2023-03-20T11:28:36.089Z,0
2023-03-20T11:29:36.094Z,0
2023-03-20T11:30:36.266Z,0
2023-03-20T11:31:36.138Z,0
2023-03-20T11:32:36.187Z,0
2023-03-20T11:33:36.090Z,0
2023-03-20T11:34:36.084Z,0
2023-03-20T11:35:36.188Z,0
2023-03-20T11:36:36.095Z,0
2023-03-20T11:37:36.085Z,0
2023-03-20T11:38:36.096Z,0
2023-03-20T11:39:36.083Z,0
2023-03-20T11:40:36.291Z,0
2023-03-20T11:41:36.078Z,0
2023-03-20T11:42:36.085Z,0
2023-03-20T11:43:36.088Z,0
2023-03-20T11:44:36.092Z,0
2023-03-20T11:45:36.166Z,0
2023-03-20T11:46:36.103Z,0
2023-03-20T11:47:36.123Z,0
2023-03-20T11:48:36.090Z,0
2023-03-20T11:49:36.082Z,0
2023-03-20T11:50:36.421Z,0
2023-03-20T11:51:36.103Z,0
2023-03-20T11:52:36.089Z,0
2023-03-20T11:53:36.096Z,0
2023-03-20T11:54:36.109Z,0
2023-03-20T11:55:36.082Z,0
2023-03-20T11:56:36.115Z,0
2023-03-20T11:57:36.095Z,0
2023-03-20T11:58:36.092Z,0
2023-03-20T11:59:36.096Z,0
2023-03-20T12:00:36.545Z,0
2023-03-20T12:01:36.089Z,0
2023-03-20T12:02:36.179Z,0
2023-03-20T12:03:36.157Z,0
2023-03-20T12:04:36.100Z,0
2023-03-20T12:05:36.112Z,0
2023-03-20T12:06:36.100Z,0
2023-03-20T12:07:36.097Z,0
2023-03-20T12:08:36.101Z,6.1000000000000005
2023-03-20T12:09:36.100Z,1.5
2023-03-20T12:10:36.367Z,0
2023-03-20T12:11:36.104Z,2
2023-03-20T12:12:36.140Z,0
2023-03-20T12:13:36.101Z,0
2023-03-20T12:14:36.115Z,0
2023-03-20T12:15:36.192Z,0
2023-03-20T12:16:36.103Z,0
2023-03-20T12:17:36.139Z,2.9000000000000004
2023-03-20T12:18:36.108Z,0
2023-03-20T12:19:36.098Z,0
2023-03-20T12:20:36.359Z,0
2023-03-20T12:21:36.131Z,0
2023-03-20T12:22:36.110Z,1.8
2023-03-20T12:23:36.102Z,3.6
2023-03-20T12:24:36.115Z,4.6000000000000005
2023-03-20T12:25:36.106Z,0
2023-03-20T12:26:36.109Z,0
2023-03-20T12:27:36.120Z,0
2023-03-20T12:28:36.165Z,0
2023-03-20T12:29:36.117Z,0
2023-03-20T12:30:36.435Z,4.6000000000000005
2023-03-20T12:31:36.250Z,5.1000000000000005
2023-03-20T12:32:36.188Z,0
2023-03-20T12:33:36.118Z,7.4
2023-03-20T12:34:36.119Z,4.4
2023-03-20T12:35:36.163Z,2.8000000000000003
2023-03-20T12:36:36.115Z,0
2023-03-20T12:37:36.118Z,0
2023-03-20T12:38:36.124Z,0
2023-03-20T12:39:36.113Z,1.4000000000000001
2023-03-20T12:40:36.292Z,0
2023-03-20T12:41:36.117Z,0
2023-03-20T12:42:36.112Z,0
2023-03-20T12:43:36.121Z,0
2023-03-20T12:44:36.136Z,0
2023-03-20T12:45:36.128Z,0
2023-03-20T12:46:36.176Z,0
2023-03-20T12:47:36.111Z,0
2023-03-20T12:48:36.115Z,0
2023-03-20T12:49:36.121Z,0
2023-03-20T12:50:36.436Z,0
2023-03-20T12:51:36.122Z,0
2023-03-20T12:52:36.117Z,2.7
2023-03-20T12:53:36.108Z,3
2023-03-20T12:54:36.117Z,1.2000000000000002
2023-03-20T12:55:36.123Z,2.5
2023-03-20T12:56:36.114Z,4.5
2023-03-20T12:57:36.158Z,5.6000000000000005
2023-03-20T12:58:36.123Z,4.9
2023-03-20T12:59:36.155Z,4
2023-03-20T13:00:36.571Z,0.9
2023-03-20T13:01:36.147Z,0
2023-03-20T13:02:36.180Z,0
2023-03-20T13:03:36.120Z,0
2023-03-20T13:04:36.128Z,0
2023-03-20T13:05:36.117Z,6.2
2023-03-20T13:06:36.126Z,0
2023-03-20T13:07:36.126Z,0
2023-03-20T13:08:36.124Z,0
2023-03-20T13:09:36.137Z,0
2023-03-20T13:10:36.449Z,0
2023-03-20T13:11:36.127Z,0
2023-03-20T13:12:36.133Z,0
2023-03-20T13:13:36.127Z,0
2023-03-20T13:14:36.132Z,0
2023-03-20T13:15:36.119Z,0
2023-03-20T13:16:36.275Z,0
2023-03-20T13:17:36.126Z,5.1000000000000005
2023-03-20T13:18:36.124Z,6.9
2023-03-20T13:19:36.140Z,4.9
2023-03-20T13:20:36.404Z,1.7000000000000002
2023-03-20T13:21:38.255Z,1.6
2023-03-20T13:22:36.133Z,1.6
2023-03-20T13:23:36.148Z,4.6000000000000005
2023-03-20T13:24:36.128Z,4.4
2023-03-20T13:25:36.405Z,3
2023-03-20T13:26:36.130Z,4.7
2023-03-20T13:27:36.136Z,5.4
2023-03-20T13:28:36.134Z,3.2
2023-03-20T13:29:36.125Z,0
2023-03-20T13:30:36.363Z,0
2023-03-20T13:31:36.302Z,0
2023-03-20T13:32:36.218Z,0
2023-03-20T13:33:36.134Z,0
2023-03-20T13:34:36.140Z,0
2023-03-20T13:35:36.178Z,0
2023-03-20T13:36:36.132Z,0
2023-03-20T13:37:36.193Z,0
2023-03-20T13:38:36.139Z,4.7
2023-03-20T13:39:36.140Z,6.300000000000001
2023-03-20T13:40:36.335Z,4.7
2023-03-20T13:41:36.145Z,0.9
2023-03-20T13:42:36.153Z,4
2023-03-20T13:43:36.140Z,4.800000000000001
2023-03-20T13:44:36.141Z,6.1000000000000005
2023-03-20T13:45:36.129Z,5.7
2023-03-20T13:46:36.188Z,12.200000000000001
2023-03-20T13:47:36.135Z,11.600000000000001
2023-03-20T13:48:36.226Z,12.3
2023-03-20T13:49:36.125Z,12.700000000000001